Time;durP1;ratioP1;P1;durP2;ratioP2;P2;SDS_P1;SDS_P2;PMS_P1;PMS_P2;Temp;Humidity;BMP_temperature;BMP_pressure;BME280_temperature;BME280_humidity;BME280_pressure;Samples;Min_cycle;Max_cycle;Signal;HPM_P1;HPM_P2
2021/07/05 00:01:23;;;;;;;15.60;7.45;;;21.40;99.90;;;;;;1942909;72;21076;-77
2021/07/05 00:03:50;;;;;;;14.07;7.20;;;21.40;99.90;;;;;;1944242;72;21074;-77
2021/07/05 00:06:18;;;;;;;18.77;7.17;;;21.40;99.90;;;;;;1945723;72;21054;-76
2021/07/05 00:08:46;;;;;;;16.52;7.72;;;21.40;99.90;;;;;;1952505;72;21079;-74
2021/07/05 00:11:13;;;;;;;12.80;7.67;;;21.40;99.90;;;;;;1951800;73;21619;-74
2021/07/05 00:13:41;;;;;;;14.40;7.33;;;21.40;99.90;;;;;;1943779;73;21105;-75
2021/07/05 00:16:09;;;;;;;12.98;7.35;;;21.40;99.90;;;;;;1954190;72;21066;-74
2021/07/05 00:18:36;;;;;;;9.70;7.60;;;21.40;99.90;;;;;;1944621;73;21097;-74
2021/07/05 00:21:04;;;;;;;12.78;7.20;;;21.30;99.90;;;;;;1957552;73;21289;-75
2021/07/05 00:23:31;;;;;;;16.32;8.45;;;21.40;99.90;;;;;;1957600;72;21167;-75
2021/07/05 00:25:59;;;;;;;14.20;8.50;;;21.40;99.90;;;;;;1957243;72;21062;-75
2021/07/05 00:28:26;;;;;;;22.87;8.35;;;21.30;99.90;;;;;;1957343;73;21081;-75
2021/07/05 00:30:54;;;;;;;12.98;7.97;;;21.30;99.90;;;;;;1957835;72;22068;-74
2021/07/05 00:33:21;;;;;;;15.98;8.48;;;21.30;99.90;;;;;;1956986;73;21169;-75
2021/07/05 00:35:49;;;;;;;14.87;8.70;;;21.30;99.90;;;;;;1949819;72;21070;-75
2021/07/05 00:38:17;;;;;;;13.10;8.65;;;21.30;99.90;;;;;;1985170;72;21108;-74
2021/07/05 00:40:44;;;;;;;13.13;9.23;;;21.30;99.90;;;;;;1961448;72;21096;-75
2021/07/05 00:43:12;;;;;;;17.00;9.45;;;21.30;99.90;;;;;;1956171;73;21081;-75
2021/07/05 00:45:39;;;;;;;16.75;10.15;;;21.30;99.90;;;;;;1945376;73;21177;-75
2021/07/05 00:48:07;;;;;;;20.55;9.28;;;21.30;99.90;;;;;;1944484;73;21150;-75
2021/07/05 00:50:35;;;;;;;14.85;9.60;;;21.30;99.90;;;;;;1958185;73;21081;-74
2021/07/05 00:53:04;;;;;;;18.30;9.60;;;21.20;99.90;;;;;;1956511;73;21531;-76
2021/07/05 00:55:32;;;;;;;16.17;9.85;;;21.20;99.90;;;;;;1957829;73;21128;-75
2021/07/05 00:58:01;;;;;;;23.70;9.50;;;21.20;99.90;;;;;;1957382;73;21105;-75
2021/07/05 01:00:29;;;;;;;20.65;10.55;;;21.10;99.90;;;;;;1953647;73;21067;-75
2021/07/05 01:02:57;;;;;;;22.07;11.05;;;21.10;99.90;;;;;;1957329;72;21143;-75
2021/07/05 01:05:25;;;;;;;18.40;10.50;;;21.20;99.90;;;;;;1949725;72;21414;-75
2021/07/05 01:07:53;;;;;;;17.85;10.78;;;21.20;99.90;;;;;;1932026;73;21105;-75
2021/07/05 01:10:22;;;;;;;20.77;11.63;;;21.20;99.90;;;;;;1927736;73;21167;-75
2021/07/05 01:12:51;;;;;;;20.97;11.33;;;21.10;99.90;;;;;;1940768;73;21641;-75
2021/07/05 01:15:25;;;;;;;24.18;12.82;;;21.20;99.90;;;;;;1930961;73;21094;-75
2021/07/05 01:17:53;;;;;;;18.75;11.43;;;21.20;99.90;;;;;;1943075;73;21243;-74
2021/07/05 01:20:23;;;;;;;16.67;11.08;;;21.10;99.90;;;;;;1935994;73;21085;-76
2021/07/05 01:22:51;;;;;;;24.02;12.03;;;21.10;99.90;;;;;;1948457;72;21085;-75
2021/07/05 01:25:22;;;;;;;21.42;12.20;;;21.10;99.90;;;;;;1946766;72;21639;-75
2021/07/05 01:27:51;;;;;;;33.65;13.43;;;21.10;99.90;;;;;;1949018;73;21081;-75
2021/07/05 01:30:21;;;;;;;27.87;12.05;;;21.00;99.90;;;;;;1939712;73;21461;-75
2021/07/05 01:32:51;;;;;;;21.35;11.95;;;21.00;99.90;;;;;;1958308;73;21085;-75
2021/07/05 01:35:19;;;;;;;15.63;11.78;;;21.00;99.90;;;;;;1952853;72;21070;-75
2021/07/05 01:37:46;;;;;;;16.23;12.07;;;21.00;99.90;;;;;;1953739;72;21161;-75
2021/07/05 01:40:18;;;;;;;24.32;12.40;;;21.00;99.90;;;;;;1952255;73;21193;-75
2021/07/05 01:42:49;;;;;;;;;;;21.00;99.90;;;;;;1955515;73;21104;-75
2021/07/05 01:45:16;;;;;;;21.37;12.93;;;21.00;99.90;;;;;;1958395;73;20188;-75
2021/07/05 01:47:44;;;;;;;20.25;12.63;;;21.00;99.90;;;;;;1947394;73;21036;-75
2021/07/05 01:50:12;;;;;;;16.93;12.90;;;20.90;99.90;;;;;;1945391;73;22268;-76
2021/07/05 01:52:39;;;;;;;22.85;14.10;;;20.90;99.90;;;;;;1957647;73;21054;-76
2021/07/05 01:55:07;;;;;;;20.32;12.95;;;20.90;99.90;;;;;;1957346;72;21630;-75
2021/07/05 01:57:36;;;;;;;20.60;12.47;;;20.90;99.90;;;;;;1957132;73;21185;-75
2021/07/05 02:00:09;;;;;;;24.65;13.62;;;20.90;99.90;;;;;;1928538;73;21137;-75
2021/07/05 02:02:37;;;;;;;16.62;12.60;;;20.90;99.90;;;;;;1928808;74;21091;-76
2021/07/05 02:05:07;;;;;;;24.90;13.08;;;20.90;99.90;;;;;;1951157;73;21777;-76
2021/07/05 02:07:35;;;;;;;23.42;13.43;;;20.90;99.90;;;;;;1952109;72;21181;-76
2021/07/05 02:10:06;;;;;;;20.50;12.05;;;20.90;99.90;;;;;;1956897;72;21434;-75
2021/07/05 02:12:35;;;;;;;24.47;12.45;;;20.90;99.90;;;;;;1957466;72;21173;-76
2021/07/05 02:15:04;;;;;;;14.73;12.10;;;20.80;99.90;;;;;;1957139;72;22238;-74
2021/07/05 02:17:31;;;;;;;19.85;12.13;;;20.80;99.90;;;;;;1956396;73;21070;-76
2021/07/05 02:19:59;;;;;;;16.87;11.97;;;20.80;99.90;;;;;;1956396;73;21081;-76
2021/07/05 02:22:26;;;;;;;18.48;11.95;;;20.80;99.90;;;;;;1956796;73;21513;-76
2021/07/05 02:24:54;;;;;;;24.30;12.43;;;20.80;99.90;;;;;;1957243;73;21090;-75
2021/07/05 02:27:21;;;;;;;18.48;11.60;;;20.80;99.90;;;;;;1957184;73;21284;-75
2021/07/05 02:29:50;;;;;;;17.95;12.35;;;20.80;99.90;;;;;;1956812;73;21452;-75
2021/07/05 02:32:18;;;;;;;23.05;11.78;;;20.80;99.90;;;;;;1957467;72;21037;-74
2021/07/05 02:34:45;;;;;;;25.30;10.93;;;20.70;99.90;;;;;;1957232;73;21105;-75
2021/07/05 02:37:13;;;;;;;17.65;10.93;;;20.80;99.90;;;;;;1963163;72;21623;-75
2021/07/05 02:39:41;;;;;;;17.12;10.78;;;20.70;99.90;;;;;;1959227;72;21614;-73
2021/07/05 02:42:08;;;;;;;16.10;11.50;;;20.70;99.90;;;;;;1947354;72;21520;-75
2021/07/05 02:44:36;;;;;;;13.35;11.00;;;20.70;99.90;;;;;;1955126;72;21039;-74
2021/07/05 02:47:04;;;;;;;17.25;11.03;;;20.70;99.90;;;;;;1955519;73;21015;-75
2021/07/05 02:49:32;;;;;;;15.05;11.15;;;20.70;99.90;;;;;;1957784;73;21033;-76
2021/07/05 02:51:59;;;;;;;17.45;11.22;;;20.70;99.90;;;;;;1969052;72;21151;-76
2021/07/05 02:54:27;;;;;;;15.18;11.57;;;20.70;99.90;;;;;;1944136;73;21203;-74
2021/07/05 02:56:54;;;;;;;23.20;12.20;;;20.70;99.90;;;;;;1950934;73;21054;-75
2021/07/05 02:59:22;;;;;;;19.62;11.68;;;20.60;99.90;;;;;;1956700;72;21067;-76
2021/07/05 03:01:49;;;;;;;20.30;11.57;;;20.60;99.90;;;;;;1957875;72;21091;-75
2021/07/05 03:04:17;;;;;;;22.17;11.70;;;20.60;99.90;;;;;;1957469;72;21600;-74
2021/07/05 03:06:44;;;;;;;18.75;11.43;;;20.60;99.90;;;;;;1956907;73;21163;-76
2021/07/05 03:09:12;;;;;;;21.60;11.68;;;20.50;99.90;;;;;;1957657;73;21104;-75
2021/07/05 03:11:39;;;;;;;16.27;11.78;;;20.50;99.90;;;;;;1957598;73;22076;-75
2021/07/05 03:14:07;;;;;;;19.25;12.20;;;20.60;99.90;;;;;;1957457;73;21113;-76
2021/07/05 03:16:34;;;;;;;15.65;12.35;;;20.60;99.90;;;;;;1957465;73;21159;-76
2021/07/05 03:19:02;;;;;;;18.25;12.40;;;20.50;99.90;;;;;;1957834;73;21575;-74
2021/07/05 03:21:29;;;;;;;14.43;12.00;;;20.50;99.90;;;;;;1957471;72;21673;-75
2021/07/05 03:23:58;;;;;;;14.40;11.80;;;20.50;99.90;;;;;;1954527;73;21125;-75
2021/07/05 03:26:26;;;;;;;15.35;12.23;;;20.50;99.90;;;;;;1944383;73;21602;-74
2021/07/05 03:28:53;;;;;;;18.07;12.53;;;20.50;99.90;;;;;;1921448;73;21102;-76
2021/07/05 03:31:22;;;;;;;18.85;13.10;;;20.40;99.90;;;;;;1906266;74;21169;-75
2021/07/05 03:33:49;;;;;;;16.90;12.20;;;20.40;99.90;;;;;;1889602;76;21098;-76
2021/07/05 03:36:17;;;;;;;19.02;12.90;;;20.40;99.90;;;;;;1889783;76;21097;-76
2021/07/05 03:38:44;;;;;;;16.20;12.45;;;20.30;99.90;;;;;;1885382;76;21199;-77
2021/07/05 03:41:13;;;;;;;21.02;12.28;;;20.30;99.90;;;;;;1886882;74;21158;-77
2021/07/05 03:43:41;;;;;;;16.95;12.45;;;20.20;99.90;;;;;;1882630;75;21630;-76
2021/07/05 03:46:09;;;;;;;15.83;13.03;;;20.20;99.90;;;;;;1882759;76;21168;-77
2021/07/05 03:48:36;;;;;;;17.15;13.20;;;20.20;99.90;;;;;;1882565;76;21074;-77
2021/07/05 03:51:04;;;;;;;18.17;13.45;;;20.20;99.90;;;;;;1880894;76;21151;-77
2021/07/05 03:53:31;;;;;;;18.92;11.85;;;20.20;99.90;;;;;;1876531;76;21069;-77
2021/07/05 03:55:59;;;;;;;21.05;13.13;;;20.30;99.90;;;;;;1876535;76;21100;-76
2021/07/05 03:58:26;;;;;;;19.52;11.80;;;20.30;99.90;;;;;;1877259;75;21116;-75
2021/07/05 04:00:54;;;;;;;24.92;13.15;;;20.30;99.90;;;;;;1911869;75;21175;-77
2021/07/05 04:03:21;;;;;;;15.25;12.75;;;20.30;99.90;;;;;;1887132;75;21093;-76
2021/07/05 04:05:51;;;;;;;20.97;14.00;;;20.30;99.90;;;;;;1878744;76;21388;-75
2021/07/05 04:08:20;;;;;;;21.20;13.93;;;20.40;99.90;;;;;;1876692;76;21100;-76
2021/07/05 04:10:48;;;;;;;17.80;14.50;;;20.40;99.90;;;;;;1876606;76;21183;-76
2021/07/05 04:13:16;;;;;;;21.00;14.78;;;20.30;99.90;;;;;;1877111;76;21527;-75
2021/07/05 04:15:43;;;;;;;20.43;14.85;;;20.30;99.90;;;;;;1879631;75;21599;-76
2021/07/05 04:18:10;;;;;;;24.55;14.73;;;20.30;99.90;;;;;;1882261;76;21148;-76
2021/07/05 04:20:38;;;;;;;21.02;15.08;;;20.40;99.90;;;;;;1877481;76;21065;-76
2021/07/05 04:23:06;;;;;;;20.62;15.53;;;20.30;99.90;;;;;;1876573;76;21347;-76
2021/07/05 04:25:34;;;;;;;21.37;15.53;;;20.30;99.90;;;;;;1882603;75;21041;-76
2021/07/05 04:28:02;;;;;;;25.88;17.52;;;20.30;99.90;;;;;;1904248;75;21117;-75
2021/07/05 04:30:30;;;;;;;21.95;17.80;;;20.30;99.90;;;;;;1857808;75;21072;-74
2021/07/05 04:32:58;;;;;;;19.60;16.90;;;20.30;99.90;;;;;;1850676;77;22178;-75
2021/07/05 04:35:27;;;;;;;19.80;17.52;;;20.20;99.90;;;;;;1850964;76;21101;-76
2021/07/05 04:37:56;;;;;;;25.62;17.82;;;20.20;99.90;;;;;;1885547;75;21591;-77
2021/07/05 04:40:26;;;;;;;21.02;18.02;;;20.20;99.90;;;;;;1897041;75;21160;-77
2021/07/05 04:42:54;;;;;;;23.35;18.70;;;20.10;99.90;;;;;;1882093;76;21611;-76
2021/07/05 04:45:26;;;;;;;22.07;19.73;;;20.10;99.90;;;;;;1882077;76;21662;-76
2021/07/05 04:47:54;;;;;;;26.42;19.48;;;20.10;99.90;;;;;;1882092;76;21129;-75
2021/07/05 04:50:22;;;;;;;27.40;19.10;;;20.20;99.90;;;;;;1881887;76;21583;-77
2021/07/05 04:52:50;;;;;;;23.95;20.88;;;20.20;99.90;;;;;;1887826;75;21027;-76
2021/07/05 04:55:20;;;;;;;27.82;20.90;;;20.20;99.90;;;;;;1878303;76;21053;-77
2021/07/05 04:57:50;;;;;;;31.27;21.10;;;20.20;99.90;;;;;;1877435;76;21073;-77
2021/07/05 05:00:23;;;;;;;24.32;19.55;;;20.20;99.90;;;;;;1864445;76;21556;-76
2021/07/05 05:02:52;;;;;;;27.40;20.15;;;20.20;99.90;;;;;;1874550;76;21089;-76
2021/07/05 05:05:21;;;;;;;21.87;19.55;;;20.20;99.90;;;;;;1876506;76;21155;-76
2021/07/05 05:07:49;;;;;;;25.20;22.13;;;20.20;99.90;;;;;;1882120;75;21599;-77
2021/07/05 05:10:18;;;;;;;24.60;19.67;;;20.20;99.90;;;;;;1881755;76;21090;-77
2021/07/05 05:12:47;;;;;;;29.65;20.10;;;20.30;99.90;;;;;;1881812;76;21106;-75
2021/07/05 05:15:17;;;;;;;24.18;21.48;;;20.30;99.90;;;;;;1879095;76;21101;-76
2021/07/05 05:17:45;;;;;;;25.60;20.80;;;20.30;99.90;;;;;;1876448;76;21583;-76
2021/07/05 05:20:14;;;;;;;27.35;20.08;;;20.30;99.90;;;;;;1878323;75;21070;-77
2021/07/05 05:22:42;;;;;;;24.98;20.72;;;20.30;99.90;;;;;;1878390;75;21626;-76
2021/07/05 05:25:11;;;;;;;28.27;21.12;;;20.30;99.90;;;;;;1861169;76;21109;-75
2021/07/05 05:27:39;;;;;;;23.40;20.32;;;20.30;99.90;;;;;;1881587;76;21167;-76
2021/07/05 05:30:10;;;;;;;27.05;21.73;;;20.40;99.90;;;;;;1879353;75;21140;-76
2021/07/05 05:32:38;;;;;;;28.90;20.65;;;20.40;99.90;;;;;;1863649;75;21526;-75
2021/07/05 05:35:06;;;;;;;26.87;21.25;;;20.40;99.90;;;;;;1850755;77;21120;-75
2021/07/05 05:37:34;;;;;;;22.75;20.27;;;20.20;99.90;;;;;;1876241;76;21550;-76
2021/07/05 05:40:03;;;;;;;24.67;20.37;;;20.30;99.90;;;;;;1861499;76;21027;-76
2021/07/05 05:42:30;;;;;;;26.17;20.57;;;20.30;99.90;;;;;;1866966;76;21090;-75
2021/07/05 05:44:58;;;;;;;29.45;22.02;;;20.30;99.90;;;;;;1871449;75;21038;-75
2021/07/05 05:47:25;;;;;;;26.05;21.20;;;20.30;99.90;;;;;;1878798;74;21532;-75
2021/07/05 05:49:53;;;;;;;23.60;19.05;;;20.30;99.90;;;;;;1879620;76;21571;-75
2021/07/05 05:52:20;;;;;;;24.10;19.15;;;20.20;99.90;;;;;;1856614;76;21025;-74
2021/07/05 05:54:48;;;;;;;22.93;18.12;;;20.20;99.90;;;;;;1869977;76;21113;-75
2021/07/05 05:57:29;;;;;;;20.45;17.95;;;20.30;99.90;;;;;;1881660;75;21592;-75
2021/07/05 05:59:57;;;;;;;23.77;19.12;;;20.30;99.90;;;;;;1882661;76;21651;-74
2021/07/05 06:02:26;;;;;;;26.80;20.27;;;20.30;99.90;;;;;;1854030;76;21161;-77
2021/07/05 06:04:53;;;;;;;26.73;20.00;;;20.40;99.90;;;;;;1881587;75;21205;-75
2021/07/05 06:07:21;;;;;;;25.45;20.55;;;20.30;99.90;;;;;;1882884;75;21608;-77
2021/07/05 06:09:49;;;;;;;23.55;19.80;;;20.40;99.90;;;;;;1886982;76;21611;-75
2021/07/05 06:12:18;;;;;;;24.57;21.52;;;20.40;99.90;;;;;;1881032;75;21097;-75
2021/07/05 06:14:46;;;;;;;25.48;20.95;;;20.50;99.90;;;;;;1889041;74;22284;-78
2021/07/05 06:17:13;;;;;;;26.77;21.15;;;20.50;99.90;;;;;;1867877;76;21592;-75
2021/07/05 06:19:41;;;;;;;29.20;19.73;;;20.50;99.90;;;;;;1847556;75;21095;-75
2021/07/05 06:22:18;;;;;;;26.65;21.23;;;20.50;99.90;;;;;;1836611;76;21680;-76
2021/07/05 06:24:47;;;;;;;28.23;21.05;;;20.50;99.90;;;;;;1857116;77;21094;-77
2021/07/05 06:27:13;;;;;;;27.62;21.52;;;20.50;99.90;;;;;;1867809;76;21577;-77
2021/07/05 06:29:41;;;;;;;24.45;20.17;;;20.50;99.90;;;;;;1860612;76;21412;-77
2021/07/05 06:32:09;;;;;;;25.75;19.35;;;20.30;99.90;;;;;;1904953;74;21082;-78
2021/07/05 06:34:36;;;;;;;25.92;19.77;;;20.30;99.90;;;;;;1885836;74;21081;-76
2021/07/05 06:37:04;;;;;;;21.27;19.00;;;20.30;99.90;;;;;;1883171;74;21175;-77
2021/07/05 06:39:31;;;;;;;26.23;19.67;;;20.40;99.90;;;;;;1847265;76;21111;-77
2021/07/05 06:41:59;;;;;;;22.50;19.42;;;20.50;99.90;;;;;;1893391;75;21579;-77
2021/07/05 06:44:26;;;;;;;24.27;19.10;;;20.50;99.90;;;;;;1896016;75;21553;-76
2021/07/05 06:46:54;;;;;;;24.98;18.40;;;20.50;99.90;;;;;;1855892;76;21082;-77
2021/07/05 06:49:22;;;;;;;22.00;19.65;;;20.60;99.90;;;;;;1879387;75;21401;-76
2021/07/05 06:51:51;;;;;;;23.75;20.70;;;20.50;99.90;;;;;;1861846;76;21200;-77
2021/07/05 06:54:18;;;;;;;26.12;20.17;;;20.50;99.90;;;;;;1895324;74;21196;-74
2021/07/05 06:56:46;;;;;;;23.27;19.75;;;20.50;99.90;;;;;;1885865;74;21095;-74
2021/07/05 06:59:13;;;;;;;23.65;20.75;;;20.60;99.90;;;;;;1888854;74;21137;-73
2021/07/05 07:01:41;;;;;;;22.17;19.80;;;20.50;99.90;;;;;;1837806;76;21112;-75
2021/07/05 07:04:09;;;;;;;22.30;19.70;;;20.60;99.90;;;;;;1865626;75;21102;-75
2021/07/05 07:06:36;;;;;;;23.12;18.87;;;20.60;99.90;;;;;;1887391;75;21079;-75
2021/07/05 07:09:05;;;;;;;21.15;18.85;;;20.60;99.90;;;;;;1866914;75;21133;-73
2021/07/05 07:11:33;;;;;;;21.23;17.57;;;20.70;99.90;;;;;;1902223;75;21532;-75
2021/07/05 07:14:00;;;;;;;22.37;20.00;;;20.80;99.90;;;;;;1869022;75;21207;-75
2021/07/05 07:16:30;;;;;;;24.15;18.87;;;20.90;99.90;;;;;;1872030;75;21042;-73
2021/07/05 07:21:27;;;;;;;21.95;18.95;;;20.90;99.90;;;;;;1853167;76;21122;-74
2021/07/05 07:23:55;;;;;;;21.82;17.65;;;21.00;99.90;;;;;;1850664;76;21597;-75
2021/07/05 07:26:22;;;;;;;21.05;18.77;;;21.10;99.90;;;;;;1844772;77;21114;-75
2021/07/05 07:28:54;;;;;;;23.12;20.27;;;21.20;99.90;;;;;;1889887;75;21114;-74
2021/07/05 07:31:23;;;;;;;23.02;18.70;;;21.20;99.90;;;;;;1890345;74;21115;-75
2021/07/05 07:33:51;;;;;;;23.95;17.20;;;21.30;99.90;;;;;;1850741;76;21711;-76
2021/07/05 07:36:19;;;;;;;23.10;16.20;;;21.30;99.90;;;;;;1890460;74;21095;-76
2021/07/05 07:38:48;;;;;;;20.27;17.87;;;21.30;99.90;;;;;;1829810;76;21247;-77
2021/07/05 07:41:21;;;;;;;18.80;16.85;;;21.40;99.90;;;;;;1889588;74;21113;-76
2021/07/05 07:43:45;;;;;;;24.72;17.73;;;21.40;99.90;;;;;;1923473;73;21094;-76
2021/07/05 07:46:12;;;;;;;23.75;17.82;;;21.50;99.90;;;;;;1912034;74;21077;-75
2021/07/05 07:48:39;;;;;;;19.55;16.60;;;21.50;99.90;;;;;;1921634;73;21210;-76
2021/07/05 07:51:07;;;;;;;17.67;15.78;;;21.60;99.90;;;;;;1918272;73;21151;-75
2021/07/05 07:53:35;;;;;;;19.35;15.88;;;21.60;99.90;;;;;;1907129;73;21081;-74
2021/07/05 07:56:02;;;;;;;17.27;15.30;;;21.60;99.90;;;;;;1916458;73;21081;-75
2021/07/05 07:58:30;;;;;;;19.65;15.03;;;21.60;99.90;;;;;;1918415;73;21125;-75
2021/07/05 08:00:57;;;;;;;17.40;14.03;;;21.60;99.90;;;;;;1911998;73;21073;-74
2021/07/05 08:03:26;;;;;;;18.02;14.43;;;21.70;99.90;;;;;;1910416;73;21175;-77
2021/07/05 08:05:58;;;;;;;16.52;13.62;;;21.70;99.90;;;;;;1918728;73;21141;-80
2021/07/05 08:08:23;;;;;;;14.85;12.73;;;21.70;99.90;;;;;;1918840;73;21169;-79
2021/07/05 08:10:50;;;;;;;14.38;12.85;;;21.80;99.90;;;;;;1915615;73;21085;-79
2021/07/05 08:13:18;;;;;;;14.00;12.60;;;21.80;99.90;;;;;;1919779;73;21038;-80
2021/07/05 08:15:48;;;;;;;16.60;12.37;;;21.90;99.90;;;;;;1912419;73;21096;-79
2021/07/05 08:18:15;;;;;;;17.17;11.73;;;21.90;99.90;;;;;;1917237;73;21605;-80
2021/07/05 08:20:43;;;;;;;16.95;12.40;;;22.00;99.90;;;;;;1910396;73;21089;-78
2021/07/05 08:23:11;;;;;;;18.00;13.60;;;21.90;99.90;;;;;;1914997;73;21696;-80
2021/07/05 08:25:38;;;;;;;22.42;13.43;;;21.90;99.90;;;;;;1920019;73;21345;-80
2021/07/05 08:28:06;;;;;;;15.35;11.93;;;21.90;99.90;;;;;;1918170;73;21230;-79
2021/07/05 08:30:33;;;;;;;12.88;11.20;;;22.00;99.90;;;;;;1914570;73;21069;-80
2021/07/05 08:33:01;;;;;;;10.93;9.60;;;22.00;99.90;;;;;;1917386;73;21042;-80
2021/07/05 08:35:29;;;;;;;12.70;10.55;;;22.10;99.90;;;;;;1922855;73;21508;-80
2021/07/05 08:37:57;;;;;;;10.75;9.40;;;22.10;99.90;;;;;;1918976;73;21145;-79
2021/07/05 08:40:24;;;;;;;10.38;8.10;;;22.10;99.90;;;;;;1911717;73;21100;-79
2021/07/05 08:42:55;;;;;;;8.90;7.70;;;22.10;99.90;;;;;;1917516;73;21030;-80
2021/07/05 08:45:23;;;;;;;10.40;7.58;;;22.20;99.90;;;;;;1920420;73;21054;-79
2021/07/05 08:47:53;;;;;;;15.40;8.05;;;22.20;99.90;;;;;;1910882;73;21227;-77
2021/07/05 08:50:22;;;;;;;8.00;7.17;;;22.20;99.90;;;;;;1914557;73;21634;-78
2021/07/05 08:52:50;;;;;;;8.55;6.45;;;22.20;99.90;;;;;;1918672;73;21563;-77
2021/07/05 08:55:20;;;;;;;10.25;6.67;;;22.20;99.90;;;;;;1906922;73;21105;-76
2021/07/05 08:57:48;;;;;;;7.05;6.00;;;22.20;99.90;;;;;;1912406;73;21172;-77
2021/07/05 09:00:22;;;;;;;10.85;5.83;;;22.30;99.90;;;;;;1912285;73;21226;-78
2021/07/05 09:02:51;;;;;;;10.50;5.75;;;22.30;99.90;;;;;;1919090;73;21086;-77
2021/07/05 09:05:19;;;;;;;7.17;4.90;;;22.30;99.90;;;;;;1911087;73;21617;-78
2021/07/05 09:08:02;;;;;;;6.58;4.80;;;22.40;99.90;;;;;;1910817;73;21078;-77
2021/07/05 09:10:33;;;;;;;8.35;5.75;;;22.30;99.90;;;;;;1913678;73;21175;-77
2021/07/05 09:13:09;;;;;;;6.10;5.20;;;22.40;99.90;;;;;;1932388;73;22642;-78
2021/07/05 09:15:40;;;;;;;12.30;5.45;;;22.40;99.90;;;;;;1917121;73;21196;-75
2021/07/05 09:18:25;;;;;;;8.75;4.60;;;22.50;99.90;;;;;;1910771;73;21512;-76
2021/07/05 09:20:54;;;;;;;7.30;4.70;;;22.40;99.90;;;;;;1914700;73;21097;-76
2021/07/05 09:23:21;;;;;;;6.45;4.33;;;22.50;99.90;;;;;;1918114;73;21085;-76
2021/07/05 09:25:53;;;;;;;8.08;4.40;;;22.40;99.90;;;;;;1919623;73;21070;-75
2021/07/05 09:30:51;;;;;;;9.55;4.00;;;22.40;99.90;;;;;;1901990;74;21228;-74
2021/07/05 09:33:24;;;;;;;9.63;3.30;;;22.30;99.90;;;;;;1915176;74;21090;-75
2021/07/05 09:35:54;;;;;;;6.22;3.12;;;22.30;99.90;;;;;;1907479;73;21090;-75
2021/07/05 09:38:33;;;;;;;7.72;3.33;;;22.20;99.90;;;;;;1906338;74;21112;-75
2021/07/05 09:41:21;;;;;;;6.92;2.85;;;22.10;99.90;;;;;;1862892;76;21109;-74
2021/07/05 09:43:54;;;;;;;3.72;2.80;;;22.10;99.90;;;;;;1877103;76;21656;-75
2021/07/05 09:46:38;;;;;;;7.20;3.33;;;22.00;99.90;;;;;;1877425;75;21358;-76
2021/07/05 09:49:17;;;;;;;7.15;3.33;;;22.00;99.90;;;;;;1871859;76;21132;-76
2021/07/05 09:51:48;;;;;;;7.30;4.12;;;22.00;99.90;;;;;;1868325;75;21089;-77
2021/07/05 09:54:17;;;;;;;4.95;3.42;;;21.90;99.90;;;;;;1879230;75;21651;-76
2021/07/05 09:56:45;;;;;;;5.92;4.10;;;21.90;99.90;;;;;;1876781;76;22684;-77
2021/07/05 09:59:19;;;;;;;7.28;3.95;;;21.90;99.90;;;;;;1876770;76;21572;-74
2021/07/05 10:01:49;;;;;;;9.73;4.47;;;21.90;99.90;;;;;;1876452;76;22180;-73
2021/07/05 10:04:29;;;;;;;4.35;3.80;;;21.90;99.90;;;;;;1874731;76;21539;-74
2021/07/05 10:07:02;;;;;;;6.85;4.47;;;21.90;99.90;;;;;;1877006;76;21007;-73
2021/07/05 10:09:38;;;;;;;5.97;4.70;;;22.00;99.90;;;;;;1881888;76;21046;-73
2021/07/05 10:12:20;;;;;;;9.30;5.53;;;22.00;99.90;;;;;;1875630;76;21100;-74
2021/07/05 10:15:03;;;;;;;8.00;5.80;;;22.00;99.90;;;;;;1880209;76;21096;-73
2021/07/05 10:17:33;;;;;;;9.65;6.15;;;21.90;99.90;;;;;;1879895;76;21171;-74
2021/07/05 10:20:01;;;;;;;9.80;6.70;;;21.80;99.90;;;;;;1880654;75;21218;-76
2021/07/05 10:22:28;;;;;;;8.88;6.83;;;21.90;99.90;;;;;;1881288;76;21090;-75
2021/07/05 10:24:56;;;;;;;8.28;6.53;;;21.90;99.90;;;;;;1878665;76;21082;-76
2021/07/05 10:27:25;;;;;;;10.95;6.87;;;21.90;99.90;;;;;;1877360;76;21751;-76
2021/07/05 10:29:52;;;;;;;11.55;7.50;;;21.90;99.90;;;;;;1877718;76;21455;-76
2021/07/05 10:32:20;;;;;;;11.20;7.47;;;21.90;99.90;;;;;;1874751;76;21170;-75
2021/07/05 10:34:51;;;;;;;12.13;8.80;;;21.90;99.90;;;;;;1875538;76;21782;-75
2021/07/05 10:37:27;;;;;;;11.18;9.30;;;21.90;99.90;;;;;;1879326;75;21098;-75
2021/07/05 10:39:56;;;;;;;10.75;9.08;;;21.90;99.90;;;;;;1852582;75;21669;-75
2021/07/05 10:42:53;;;;;;;10.78;8.15;;;21.90;99.90;;;;;;1875821;75;21105;-75
2021/07/05 10:45:22;;;;;;;9.63;8.60;;;21.80;99.90;;;;;;1983340;71;21116;-74
2021/07/05 10:47:55;;;;;;;12.03;8.00;;;21.70;99.90;;;;;;1986069;70;21190;-74
2021/07/05 10:50:48;;;;;;;10.45;7.87;;;21.70;99.90;;;;;;1965559;71;21431;-74
2021/07/05 10:53:22;;;;;;;9.35;8.15;;;21.70;99.90;;;;;;1963564;71;21062;-75
2021/07/05 10:55:51;;;;;;;6.45;5.78;;;21.70;99.90;;;;;;1958907;71;21084;-75
2021/07/05 10:58:24;;;;;;;8.15;5.92;;;21.70;99.90;;;;;;1966307;71;21089;-75
2021/07/05 11:00:54;;;;;;;5.45;4.90;;;21.70;99.90;;;;;;1966084;71;22480;-74
2021/07/05 11:03:40;;;;;;;7.22;4.53;;;21.70;99.90;;;;;;1964818;71;21563;-75
2021/07/05 11:06:11;;;;;;;5.22;4.70;;;21.80;99.90;;;;;;1965331;71;21096;-74
2021/07/05 11:08:50;;;;;;;11.63;5.33;;;21.70;99.90;;;;;;1960718;71;21145;-73
2021/07/05 11:11:19;;;;;;;6.15;5.40;;;21.70;99.90;;;;;;1930714;73;21144;-74
2021/07/05 11:13:47;;;;;;;7.50;5.72;;;21.60;99.90;;;;;;1933910;73;21078;-74
2021/07/05 11:16:15;;;;;;;6.42;5.50;;;21.50;99.90;;;;;;1939725;73;21089;-74
2021/07/05 11:18:52;;;;;;;8.08;5.97;;;21.40;99.90;;;;;;1930490;73;21101;-74
2021/07/05 11:21:31;;;;;;;8.20;6.75;;;21.40;99.90;;;;;;1936904;73;21112;-74
2021/07/05 11:24:04;;;;;;;7.05;5.92;;;21.30;99.90;;;;;;1937311;72;21078;-74
2021/07/05 11:26:41;;;;;;;9.73;6.47;;;21.30;99.90;;;;;;1937152;72;21570;-74
2021/07/05 11:29:20;;;;;;;11.00;7.03;;;21.30;99.90;;;;;;1911102;73;21161;-74
2021/07/05 11:31:56;;;;;;;7.90;7.10;;;21.20;99.90;;;;;;1926064;73;21153;-73
2021/07/05 11:34:32;;;;;;;10.00;8.48;;;21.20;99.90;;;;;;1927468;73;21621;-73
2021/07/05 11:37:18;;;;;;;7.75;6.95;;;21.30;99.90;;;;;;1893438;74;21596;-74
2021/07/05 11:39:47;;;;;;;7.53;6.80;;;21.30;99.90;;;;;;1940017;73;22424;-75
2021/07/05 11:42:21;;;;;;;8.48;7.53;;;21.30;99.90;;;;;;1933660;73;21505;-74
2021/07/05 11:44:55;;;;;;;8.05;7.22;;;21.40;99.90;;;;;;1942769;72;21141;-74
2021/07/05 11:47:42;;;;;;;9.10;7.47;;;21.40;99.90;;;;;;1917351;73;21209;-74
2021/07/05 11:50:21;;;;;;;7.35;6.65;;;21.50;99.90;;;;;;1927430;73;21125;-74
2021/07/05 11:52:50;;;;;;;10.75;7.78;;;21.50;99.90;;;;;;1890762;74;21132;-74
2021/07/05 11:55:20;;;;;;;8.00;7.20;;;21.60;99.90;;;;;;1886248;74;21281;-74
2021/07/05 11:57:49;;;;;;;7.20;6.20;;;21.60;99.90;;;;;;1909093;74;21083;-74
2021/07/05 12:00:18;;;;;;;9.20;6.60;;;21.70;99.90;;;;;;1941317;72;21144;-75
2021/07/05 12:02:45;;;;;;;9.13;6.58;;;21.70;99.90;;;;;;1935839;73;21600;-75
2021/07/05 12:05:13;;;;;;;7.78;6.03;;;21.70;99.90;;;;;;1941638;73;21547;-74
2021/07/05 12:07:41;;;;;;;7.28;6.00;;;21.60;99.90;;;;;;1935331;73;21050;-75
2021/07/05 12:10:10;;;;;;;6.80;6.00;;;21.60;99.90;;;;;;1938234;73;21121;-75
2021/07/05 12:12:38;;;;;;;6.83;6.10;;;21.60;99.90;;;;;;1942816;73;21410;-75
2021/07/05 12:15:06;;;;;;;6.35;5.72;;;21.60;99.90;;;;;;1940042;73;21673;-75
2021/07/05 12:17:33;;;;;;;6.55;5.58;;;21.60;99.90;;;;;;1940195;72;21093;-75
2021/07/05 12:20:01;;;;;;;7.75;5.70;;;21.70;99.90;;;;;;1942164;73;21501;-74
2021/07/05 12:22:28;;;;;;;5.08;4.45;;;21.80;99.90;;;;;;1942554;73;21083;-74
2021/07/05 12:24:58;;;;;;;7.17;5.10;;;21.90;99.90;;;;;;1939526;73;21055;-74
2021/07/05 12:27:28;;;;;;;5.97;4.95;;;22.00;99.90;;;;;;1939143;73;21649;-75
2021/07/05 12:30:00;;;;;;;5.53;4.58;;;22.10;99.90;;;;;;1939856;73;21110;-75
2021/07/05 12:32:35;;;;;;;6.90;4.58;;;22.20;99.90;;;;;;1939241;73;21133;-75
2021/07/05 12:35:05;;;;;;;4.92;4.37;;;22.30;99.90;;;;;;1936891;72;22236;-74
2021/07/05 12:37:36;;;;;;;7.70;4.28;;;22.30;99.90;;;;;;1940416;73;21081;-74
2021/07/05 12:40:30;;;;;;;5.90;4.17;;;22.30;99.90;;;;;;1934841;73;21255;-74
2021/07/05 12:43:03;;;;;;;5.75;4.70;;;22.30;99.90;;;;;;1938508;73;21053;-74
2021/07/05 12:45:43;;;;;;;5.55;4.58;;;22.30;99.90;;;;;;1941417;73;21108;-74
2021/07/05 12:48:27;;;;;;;5.15;4.55;;;22.40;99.90;;;;;;1942026;73;21175;-74
2021/07/05 12:50:57;;;;;;;6.92;4.28;;;22.50;99.90;;;;;;1937283;73;21519;-74